Hauptseite
METAR-TAF:

METAR-TAF

Flughäfen :

Bagdad, Irak

Flughafen Bagdad

Breite: 33-15-45N, Länge: 44-14-04E, Höhe: 35 m

Beobachtung

Neuester Wetterbericht von vor 11 Minuten, um 12:00 UTC
Wind 13 kt aus West
Temperatur 38°C
Luftfeuchtigkeit 17%
Luftdruck 1005 hPa
Sichtweite 10 km oder mehr
keine Wolken unter 1500 m und keine Kumulonimbus oder Gewitterwolken

METAR: ORBI 221200Z 27013KT CAVOK 38/09 Q1005 NOSIG

Zeit: 15:11 (12:11 UTC)

Prognose

Neuester Wetterbericht von vor 2 Stunden und 11 Minuten, um 10:00 UTC
Gültige Prognose vom 22 um 12 UTC bis 23 um 12 UTC
Wind 12 kt aus West/Nordwest
Sichtweite: 8000 m

TAF: ORBI 221000Z 2212/2312 30012KT 8000 NSC

Wetterbeobachtungen und Prognosen von mehr als 4000 Flughäfen (METAR und TAF Bericht).

Die verfügbaren Stationen werden durch gelbe und rote Markierungen auf der Karte dargestellt.

Führen Sie die Maus auf sie, um den Namen der Station zu sehen.

Darauf klicken, um die Beobachtung von Wetterbeobachtungen und Prognosen zu sehen.

Um die Karte zu ändern : klicken Sie auf den grünen Tasten mit einem schwarzen Kreuz Zum Vergrößern, auf den grünen Button mit einem Gedankenstrich zu verkleinern, oder auf die grünen Pfeile für benachbarte Karten.


METAR-TAF: